sensor_id;sensor_type;location;lat;lon;timestamp;P1;durP1;ratioP1;P2;durP2;ratioP2
20411;SDS011;10365;52.578;8.138;2022-09-01T00:01:21;2.65;;;1.50;;
20411;SDS011;10365;52.578;8.138;2022-09-01T00:03:49;2.67;;;1.50;;
20411;SDS011;10365;52.578;8.138;2022-09-01T00:06:20;3.17;;;1.40;;
20411;SDS011;10365;52.578;8.138;2022-09-01T00:08:49;3.08;;;1.42;;
20411;SDS011;10365;52.578;8.138;2022-09-01T00:11:15;1.58;;;1.10;;
20411;SDS011;10365;52.578;8.138;2022-09-01T00:13:40;5.55;;;1.38;;
20411;SDS011;10365;52.578;8.138;2022-09-01T00:16:06;4.68;;;1.55;;
20411;SDS011;10365;52.578;8.138;2022-09-01T00:18:31;2.63;;;1.10;;
20411;SDS011;10365;52.578;8.138;2022-09-01T00:20:57;3.88;;;1.40;;
20411;SDS011;10365;52.578;8.138;2022-09-01T00:23:24;2.75;;;1.23;;
20411;SDS011;10365;52.578;8.138;2022-09-01T00:25:49;3.15;;;1.40;;
20411;SDS011;10365;52.578;8.138;2022-09-01T00:28:15;5.07;;;1.10;;
20411;SDS011;10365;52.578;8.138;2022-09-01T00:30:40;3.28;;;1.20;;
20411;SDS011;10365;52.578;8.138;2022-09-01T00:33:06;2.35;;;1.20;;
20411;SDS011;10365;52.578;8.138;2022-09-01T00:35:33;2.70;;;1.33;;
20411;SDS011;10365;52.578;8.138;2022-09-01T00:37:58;2.58;;;1.30;;
20411;SDS011;10365;52.578;8.138;2022-09-01T00:40:24;2.85;;;1.00;;
20411;SDS011;10365;52.578;8.138;2022-09-01T00:42:49;1.77;;;1.20;;
20411;SDS011;10365;52.578;8.138;2022-09-01T00:45:15;1.45;;;1.10;;
20411;SDS011;10365;52.578;8.138;2022-09-01T00:47:41;1.90;;;1.30;;
20411;SDS011;10365;52.578;8.138;2022-09-01T00:50:07;2.97;;;1.25;;
20411;SDS011;10365;52.578;8.138;2022-09-01T00:52:34;2.40;;;1.20;;
20411;SDS011;10365;52.578;8.138;2022-09-01T00:55:04;2.33;;;1.40;;
20411;SDS011;10365;52.578;8.138;2022-09-01T00:57:31;1.83;;;1.10;;
20411;SDS011;10365;52.578;8.138;2022-09-01T01:00:19;1.90;;;1.05;;
20411;SDS011;10365;52.578;8.138;2022-09-01T01:02:43;2.97;;;1.58;;
20411;SDS011;10365;52.578;8.138;2022-09-01T01:05:10;3.75;;;1.40;;
20411;SDS011;10365;52.578;8.138;2022-09-01T01:07:36;2.17;;;1.30;;
20411;SDS011;10365;52.578;8.138;2022-09-01T01:10:07;3.58;;;1.60;;
20411;SDS011;10365;52.578;8.138;2022-09-01T01:12:36;3.63;;;1.50;;
20411;SDS011;10365;52.578;8.138;2022-09-01T01:15:03;6.68;;;1.90;;
20411;SDS011;10365;52.578;8.138;2022-09-01T01:17:31;3.80;;;1.70;;
20411;SDS011;10365;52.578;8.138;2022-09-01T01:19:57;3.50;;;1.52;;
20411;SDS011;10365;52.578;8.138;2022-09-01T01:28:17;2.53;;;1.60;;
20411;SDS011;10365;52.578;8.138;2022-09-01T01:30:52;2.40;;;1.50;;
20411;SDS011;10365;52.578;8.138;2022-09-01T01:33:22;2.55;;;1.52;;
20411;SDS011;10365;52.578;8.138;2022-09-01T01:35:48;2.90;;;1.73;;
20411;SDS011;10365;52.578;8.138;2022-09-01T01:38:14;2.92;;;1.60;;
20411;SDS011;10365;52.578;8.138;2022-09-01T01:40:40;2.72;;;1.98;;
20411;SDS011;10365;52.578;8.138;2022-09-01T01:43:06;3.35;;;2.00;;
20411;SDS011;10365;52.578;8.138;2022-09-01T01:45:32;2.75;;;2.10;;
20411;SDS011;10365;52.578;8.138;2022-09-01T01:47:57;3.78;;;1.83;;
20411;SDS011;10365;52.578;8.138;2022-09-01T01:50:27;2.20;;;1.73;;
20411;SDS011;10365;52.578;8.138;2022-09-01T01:52:55;2.20;;;1.80;;
20411;SDS011;10365;52.578;8.138;2022-09-01T01:55:25;6.05;;;1.92;;
20411;SDS011;10365;52.578;8.138;2022-09-01T01:57:54;2.67;;;1.95;;
20411;SDS011;10365;52.578;8.138;2022-09-01T02:00:22;3.17;;;2.20;;
20411;SDS011;10365;52.578;8.138;2022-09-01T02:02:51;6.10;;;1.92;;
20411;SDS011;10365;52.578;8.138;2022-09-01T02:05:38;6.03;;;1.85;;
20411;SDS011;10365;52.578;8.138;2022-09-01T02:08:05;4.03;;;1.85;;
20411;SDS011;10365;52.578;8.138;2022-09-01T02:10:32;3.85;;;2.20;;
20411;SDS011;10365;52.578;8.138;2022-09-01T02:12:58;4.53;;;2.28;;
20411;SDS011;10365;52.578;8.138;2022-09-01T02:15:28;4.00;;;2.10;;
20411;SDS011;10365;52.578;8.138;2022-09-01T02:17:54;2.80;;;1.85;;
20411;SDS011;10365;52.578;8.138;2022-09-01T02:20:24;4.75;;;2.20;;
20411;SDS011;10365;52.578;8.138;2022-09-01T02:22:54;3.00;;;1.77;;
20411;SDS011;10365;52.578;8.138;2022-09-01T02:25:20;3.45;;;2.25;;
20411;SDS011;10365;52.578;8.138;2022-09-01T02:27:48;2.17;;;1.75;;
20411;SDS011;10365;52.578;8.138;2022-09-01T02:30:20;4.85;;;2.53;;
20411;SDS011;10365;52.578;8.138;2022-09-01T02:32:49;3.13;;;2.78;;
20411;SDS011;10365;52.578;8.138;2022-09-01T02:35:14;5.80;;;2.55;;
20411;SDS011;10365;52.578;8.138;2022-09-01T02:37:41;2.20;;;1.80;;
20411;SDS011;10365;52.578;8.138;2022-09-01T02:40:08;1.75;;;1.20;;
20411;SDS011;10365;52.578;8.138;2022-09-01T02:42:35;3.10;;;1.50;;
20411;SDS011;10365;52.578;8.138;2022-09-01T02:45:00;2.78;;;1.42;;
20411;SDS011;10365;52.578;8.138;2022-09-01T02:47:27;1.95;;;1.33;;
20411;SDS011;10365;52.578;8.138;2022-09-01T02:49:52;2.35;;;1.58;;
20411;SDS011;10365;52.578;8.138;2022-09-01T02:52:18;1.80;;;1.40;;
20411;SDS011;10365;52.578;8.138;2022-09-01T02:54:47;2.55;;;1.60;;
20411;SDS011;10365;52.578;8.138;2022-09-01T02:57:14;2.45;;;1.30;;
20411;SDS011;10365;52.578;8.138;2022-09-01T02:59:40;4.85;;;1.70;;
20411;SDS011;10365;52.578;8.138;2022-09-01T03:02:07;4.00;;;1.63;;
20411;SDS011;10365;52.578;8.138;2022-09-01T03:04:32;2.17;;;1.38;;
20411;SDS011;10365;52.578;8.138;2022-09-01T03:07:00;5.18;;;1.60;;
20411;SDS011;10365;52.578;8.138;2022-09-01T03:09:26;7.53;;;2.13;;
20411;SDS011;10365;52.578;8.138;2022-09-01T03:11:53;8.25;;;2.13;;
20411;SDS011;10365;52.578;8.138;2022-09-01T03:14:19;7.45;;;1.98;;
20411;SDS011;10365;52.578;8.138;2022-09-01T03:16:45;5.30;;;2.08;;
20411;SDS011;10365;52.578;8.138;2022-09-01T03:19:11;4.45;;;2.13;;
20411;SDS011;10365;52.578;8.138;2022-09-01T03:21:40;4.03;;;1.85;;
20411;SDS011;10365;52.578;8.138;2022-09-01T03:24:07;4.38;;;1.92;;
20411;SDS011;10365;52.578;8.138;2022-09-01T03:26:33;3.33;;;1.92;;
20411;SDS011;10365;52.578;8.138;2022-09-01T03:29:00;2.42;;;1.70;;
20411;SDS011;10365;52.578;8.138;2022-09-01T03:31:26;3.97;;;1.70;;
20411;SDS011;10365;52.578;8.138;2022-09-01T03:33:53;5.22;;;2.17;;
20411;SDS011;10365;52.578;8.138;2022-09-01T03:36:25;4.07;;;1.90;;
20411;SDS011;10365;52.578;8.138;2022-09-01T03:38:52;2.33;;;1.90;;
20411;SDS011;10365;52.578;8.138;2022-09-01T03:41:20;3.92;;;2.25;;
20411;SDS011;10365;52.578;8.138;2022-09-01T03:43:47;3.40;;;2.75;;
20411;SDS011;10365;52.578;8.138;2022-09-01T03:46:13;2.63;;;2.28;;
20411;SDS011;10365;52.578;8.138;2022-09-01T03:48:50;3.67;;;2.30;;
20411;SDS011;10365;52.578;8.138;2022-09-01T03:51:17;5.88;;;2.53;;
20411;SDS011;10365;52.578;8.138;2022-09-01T03:53:43;5.38;;;2.92;;
20411;SDS011;10365;52.578;8.138;2022-09-01T03:56:10;6.75;;;3.45;;
20411;SDS011;10365;52.578;8.138;2022-09-01T03:58:36;6.10;;;3.70;;
20411;SDS011;10365;52.578;8.138;2022-09-01T04:01:02;8.70;;;3.28;;
20411;SDS011;10365;52.578;8.138;2022-09-01T04:03:30;6.22;;;3.25;;
20411;SDS011;10365;52.578;8.138;2022-09-01T04:05:58;10.85;;;3.70;;
20411;SDS011;10365;52.578;8.138;2022-09-01T04:08:24;7.28;;;4.65;;
20411;SDS011;10365;52.578;8.138;2022-09-01T04:10:54;11.23;;;6.05;;
20411;SDS011;10365;52.578;8.138;2022-09-01T04:13:27;11.88;;;8.48;;
20411;SDS011;10365;52.578;8.138;2022-09-01T04:15:55;14.15;;;7.55;;
20411;SDS011;10365;52.578;8.138;2022-09-01T04:18:21;11.43;;;7.07;;
20411;SDS011;10365;52.578;8.138;2022-09-01T04:20:54;13.65;;;5.72;;
20411;SDS011;10365;52.578;8.138;2022-09-01T04:23:22;9.35;;;5.07;;
20411;SDS011;10365;52.578;8.138;2022-09-01T04:25:54;9.75;;;5.40;;
20411;SDS011;10365;52.578;8.138;2022-09-01T04:28:21;7.47;;;5.25;;
20411;SDS011;10365;52.578;8.138;2022-09-01T04:30:50;6.72;;;5.22;;
20411;SDS011;10365;52.578;8.138;2022-09-01T04:33:17;7.03;;;4.90;;
20411;SDS011;10365;52.578;8.138;2022-09-01T04:35:43;7.40;;;4.45;;
20411;SDS011;10365;52.578;8.138;2022-09-01T04:38:09;13.13;;;5.32;;
20411;SDS011;10365;52.578;8.138;2022-09-01T04:43:05;8.25;;;5.30;;
20411;SDS011;10365;52.578;8.138;2022-09-01T04:45:31;6.32;;;4.75;;
20411;SDS011;10365;52.578;8.138;2022-09-01T04:48:01;7.05;;;5.25;;
20411;SDS011;10365;52.578;8.138;2022-09-01T04:50:28;9.10;;;5.25;;
20411;SDS011;10365;52.578;8.138;2022-09-01T04:53:14;10.05;;;4.90;;
20411;SDS011;10365;52.578;8.138;2022-09-01T04:55:46;12.77;;;5.05;;
20411;SDS011;10365;52.578;8.138;2022-09-01T04:58:15;11.70;;;5.30;;
20411;SDS011;10365;52.578;8.138;2022-09-01T05:00:45;10.63;;;4.72;;
20411;SDS011;10365;52.578;8.138;2022-09-01T05:03:15;10.05;;;5.35;;
20411;SDS011;10365;52.578;8.138;2022-09-01T05:06:14;11.95;;;6.25;;
20411;SDS011;10365;52.578;8.138;2022-09-01T05:08:47;21.77;;;6.03;;
20411;SDS011;10365;52.578;8.138;2022-09-01T05:11:32;14.57;;;5.85;;
20411;SDS011;10365;52.578;8.138;2022-09-01T05:14:05;11.30;;;5.93;;
20411;SDS011;10365;52.578;8.138;2022-09-01T05:16:32;11.68;;;5.72;;
20411;SDS011;10365;52.578;8.138;2022-09-01T05:18:58;17.05;;;6.70;;
20411;SDS011;10365;52.578;8.138;2022-09-01T05:21:29;17.23;;;5.93;;
20411;SDS011;10365;52.578;8.138;2022-09-01T05:23:57;11.73;;;5.50;;
20411;SDS011;10365;52.578;8.138;2022-09-01T05:26:25;11.50;;;5.57;;
20411;SDS011;10365;52.578;8.138;2022-09-01T05:28:54;11.63;;;6.45;;
20411;SDS011;10365;52.578;8.138;2022-09-01T05:31:21;9.23;;;6.25;;
20411;SDS011;10365;52.578;8.138;2022-09-01T05:33:47;10.68;;;6.35;;
20411;SDS011;10365;52.578;8.138;2022-09-01T05:36:16;11.38;;;6.28;;
20411;SDS011;10365;52.578;8.138;2022-09-01T05:38:43;8.95;;;6.80;;
20411;SDS011;10365;52.578;8.138;2022-09-01T05:41:12;13.50;;;5.88;;
20411;SDS011;10365;52.578;8.138;2022-09-01T05:43:44;8.80;;;5.90;;
20411;SDS011;10365;52.578;8.138;2022-09-01T05:46:12;6.97;;;6.25;;
20411;SDS011;10365;52.578;8.138;2022-09-01T05:48:40;5.97;;;5.38;;
20411;SDS011;10365;52.578;8.138;2022-09-01T05:51:08;7.43;;;5.07;;
20411;SDS011;10365;52.578;8.138;2022-09-01T05:53:34;11.00;;;4.82;;
20411;SDS011;10365;52.578;8.138;2022-09-01T05:56:00;6.22;;;4.07;;
20411;SDS011;10365;52.578;8.138;2022-09-01T05:58:31;5.38;;;4.00;;
20411;SDS011;10365;52.578;8.138;2022-09-01T06:00:57;5.45;;;4.25;;
20411;SDS011;10365;52.578;8.138;2022-09-01T06:03:23;7.15;;;4.47;;
20411;SDS011;10365;52.578;8.138;2022-09-01T06:05:51;13.10;;;4.43;;
20411;SDS011;10365;52.578;8.138;2022-09-01T06:08:23;9.98;;;4.00;;
20411;SDS011;10365;52.578;8.138;2022-09-01T06:10:54;6.85;;;3.80;;
20411;SDS011;10365;52.578;8.138;2022-09-01T06:13:20;7.38;;;3.60;;
20411;SDS011;10365;52.578;8.138;2022-09-01T06:15:46;10.80;;;3.60;;
20411;SDS011;10365;52.578;8.138;2022-09-01T06:18:13;5.78;;;3.60;;
20411;SDS011;10365;52.578;8.138;2022-09-01T06:20:47;7.13;;;2.88;;
20411;SDS011;10365;52.578;8.138;2022-09-01T06:23:14;6.60;;;2.67;;
20411;SDS011;10365;52.578;8.138;2022-09-01T06:25:41;8.45;;;2.60;;
20411;SDS011;10365;52.578;8.138;2022-09-01T06:28:11;5.75;;;2.75;;
20411;SDS011;10365;52.578;8.138;2022-09-01T06:30:38;3.58;;;2.35;;
20411;SDS011;10365;52.578;8.138;2022-09-01T06:33:08;3.45;;;2.08;;
20411;SDS011;10365;52.578;8.138;2022-09-01T06:35:36;5.75;;;2.35;;
20411;SDS011;10365;52.578;8.138;2022-09-01T06:38:04;5.20;;;1.70;;
20411;SDS011;10365;52.578;8.138;2022-09-01T06:40:42;4.72;;;2.08;;
20411;SDS011;10365;52.578;8.138;2022-09-01T06:43:11;8.75;;;1.90;;
20411;SDS011;10365;52.578;8.138;2022-09-01T06:45:45;3.45;;;1.70;;
20411;SDS011;10365;52.578;8.138;2022-09-01T06:48:22;4.75;;;1.90;;
20411;SDS011;10365;52.578;8.138;2022-09-01T06:50:50;11.07;;;2.25;;
20411;SDS011;10365;52.578;8.138;2022-09-01T06:53:16;6.07;;;1.92;;
20411;SDS011;10365;52.578;8.138;2022-09-01T06:55:47;6.22;;;1.70;;
20411;SDS011;10365;52.578;8.138;2022-09-01T06:58:13;5.90;;;1.52;;
20411;SDS011;10365;52.578;8.138;2022-09-01T07:00:44;4.93;;;1.90;;
20411;SDS011;10365;52.578;8.138;2022-09-01T07:03:11;3.10;;;1.50;;
20411;SDS011;10365;52.578;8.138;2022-09-01T07:05:50;4.13;;;1.42;;
20411;SDS011;10365;52.578;8.138;2022-09-01T07:08:19;2.50;;;1.67;;
20411;SDS011;10365;52.578;8.138;2022-09-01T07:11:06;3.40;;;1.70;;
20411;SDS011;10365;52.578;8.138;2022-09-01T07:13:34;2.10;;;1.10;;
20411;SDS011;10365;52.578;8.138;2022-09-01T07:16:01;6.00;;;1.20;;
20411;SDS011;10365;52.578;8.138;2022-09-01T07:18:35;5.18;;;1.52;;
20411;SDS011;10365;52.578;8.138;2022-09-01T07:21:04;3.65;;;1.27;;
20411;SDS011;10365;52.578;8.138;2022-09-01T07:23:30;3.65;;;1.50;;
20411;SDS011;10365;52.578;8.138;2022-09-01T07:25:56;10.65;;;1.60;;
20411;SDS011;10365;52.578;8.138;2022-09-01T07:28:26;4.35;;;1.10;;
20411;SDS011;10365;52.578;8.138;2022-09-01T07:30:54;8.07;;;1.40;;
20411;SDS011;10365;52.578;8.138;2022-09-01T07:33:21;8.40;;;1.15;;
20411;SDS011;10365;52.578;8.138;2022-09-01T07:35:54;3.03;;;0.98;;
20411;SDS011;10365;52.578;8.138;2022-09-01T07:38:25;5.80;;;1.35;;
20411;SDS011;10365;52.578;8.138;2022-09-01T07:40:53;1.60;;;1.15;;
20411;SDS011;10365;52.578;8.138;2022-09-01T07:43:37;3.35;;;1.15;;
20411;SDS011;10365;52.578;8.138;2022-09-01T07:46:26;1.70;;;1.00;;
20411;SDS011;10365;52.578;8.138;2022-09-01T07:48:54;1.83;;;1.02;;
20411;SDS011;10365;52.578;8.138;2022-09-01T07:51:21;2.53;;;1.00;;
20411;SDS011;10365;52.578;8.138;2022-09-01T07:53:47;2.90;;;1.10;;
20411;SDS011;10365;52.578;8.138;2022-09-01T07:56:16;3.70;;;1.17;;
20411;SDS011;10365;52.578;8.138;2022-09-01T07:58:46;6.90;;;1.10;;
20411;SDS011;10365;52.578;8.138;2022-09-01T08:01:15;2.13;;;0.93;;
20411;SDS011;10365;52.578;8.138;2022-09-01T08:03:46;1.33;;;0.70;;
20411;SDS011;10365;52.578;8.138;2022-09-01T08:06:13;7.75;;;1.02;;
20411;SDS011;10365;52.578;8.138;2022-09-01T08:08:39;3.60;;;0.80;;
20411;SDS011;10365;52.578;8.138;2022-09-01T08:11:06;5.88;;;1.08;;
20411;SDS011;10365;52.578;8.138;2022-09-01T08:13:34;9.38;;;1.33;;
20411;SDS011;10365;52.578;8.138;2022-09-01T08:18:30;5.13;;;1.25;;
20411;SDS011;10365;52.578;8.138;2022-09-01T08:20:57;6.45;;;1.40;;
20411;SDS011;10365;52.578;8.138;2022-09-01T08:23:53;6.18;;;1.00;;
20411;SDS011;10365;52.578;8.138;2022-09-01T08:26:20;3.22;;;1.08;;
20411;SDS011;10365;52.578;8.138;2022-09-01T08:28:46;4.53;;;0.50;;
20411;SDS011;10365;52.578;8.138;2022-09-01T08:31:13;5.78;;;1.20;;
20411;SDS011;10365;52.578;8.138;2022-09-01T08:33:40;4.47;;;1.00;;
20411;SDS011;10365;52.578;8.138;2022-09-01T08:36:07;3.50;;;0.80;;
20411;SDS011;10365;52.578;8.138;2022-09-01T08:38:34;2.95;;;0.75;;
20411;SDS011;10365;52.578;8.138;2022-09-01T08:41:00;4.22;;;1.13;;
20411;SDS011;10365;52.578;8.138;2022-09-01T08:46:23;2.90;;;0.80;;
20411;SDS011;10365;52.578;8.138;2022-09-01T08:48:51;3.47;;;0.90;;
20411;SDS011;10365;52.578;8.138;2022-09-01T08:51:25;10.95;;;1.17;;
20411;SDS011;10365;52.578;8.138;2022-09-01T08:54:42;6.20;;;0.80;;
20411;SDS011;10365;52.578;8.138;2022-09-01T08:56:57;0.93;;;0.60;;
20411;SDS011;10365;52.578;8.138;2022-09-01T08:59:43;2.42;;;0.60;;
20411;SDS011;10365;52.578;8.138;2022-09-01T09:09:44;9.15;;;1.08;;
20411;SDS011;10365;52.578;8.138;2022-09-01T09:12:12;5.15;;;0.73;;
20411;SDS011;10365;52.578;8.138;2022-09-01T09:14:47;1.48;;;0.77;;
20411;SDS011;10365;52.578;8.138;2022-09-01T09:17:14;4.82;;;0.90;;
20411;SDS011;10365;52.578;8.138;2022-09-01T09:19:43;6.13;;;1.00;;
20411;SDS011;10365;52.578;8.138;2022-09-01T09:22:10;2.38;;;0.85;;
20411;SDS011;10365;52.578;8.138;2022-09-01T09:24:47;4.32;;;0.80;;
20411;SDS011;10365;52.578;8.138;2022-09-01T09:27:24;2.40;;;0.60;;
20411;SDS011;10365;52.578;8.138;2022-09-01T09:29:52;4.78;;;0.70;;
20411;SDS011;10365;52.578;8.138;2022-09-01T09:32:18;5.20;;;0.80;;
20411;SDS011;10365;52.578;8.138;2022-09-01T09:45:20;1.42;;;0.60;;
20411;SDS011;10365;52.578;8.138;2022-09-01T09:47:45;1.60;;;0.65;;
20411;SDS011;10365;52.578;8.138;2022-09-01T09:52:36;7.47;;;0.90;;
20411;SDS011;10365;52.578;8.138;2022-09-01T09:55:07;3.58;;;0.75;;
20411;SDS011;10365;52.578;8.138;2022-09-01T09:57:42;2.45;;;0.73;;
20411;SDS011;10365;52.578;8.138;2022-09-01T10:02:42;1.10;;;0.60;;
20411;SDS011;10365;52.578;8.138;2022-09-01T10:05:21;2.40;;;0.70;;
20411;SDS011;10365;52.578;8.138;2022-09-01T10:07:48;1.92;;;0.70;;
20411;SDS011;10365;52.578;8.138;2022-09-01T10:10:47;6.38;;;0.90;;
20411;SDS011;10365;52.578;8.138;2022-09-01T10:13:16;3.13;;;0.90;;
20411;SDS011;10365;52.578;8.138;2022-09-01T10:15:46;2.92;;;0.77;;
20411;SDS011;10365;52.578;8.138;2022-09-01T10:18:14;1.95;;;0.77;;
20411;SDS011;10365;52.578;8.138;2022-09-01T10:20:43;1.98;;;0.68;;
20411;SDS011;10365;52.578;8.138;2022-09-01T10:23:10;1.73;;;0.82;;
20411;SDS011;10365;52.578;8.138;2022-09-01T10:25:36;3.03;;;0.80;;
20411;SDS011;10365;52.578;8.138;2022-09-01T10:28:13;2.35;;;0.80;;
20411;SDS011;10365;52.578;8.138;2022-09-01T10:30:40;0.95;;;0.60;;
20411;SDS011;10365;52.578;8.138;2022-09-01T10:33:07;1.30;;;0.50;;
20411;SDS011;10365;52.578;8.138;2022-09-01T10:35:33;1.00;;;0.60;;
20411;SDS011;10365;52.578;8.138;2022-09-01T10:38:01;3.65;;;0.57;;
20411;SDS011;10365;52.578;8.138;2022-09-01T10:45:30;3.40;;;0.52;;
20411;SDS011;10365;52.578;8.138;2022-09-01T10:50:41;1.92;;;0.60;;
20411;SDS011;10365;52.578;8.138;2022-09-01T10:53:07;1.00;;;0.50;;
20411;SDS011;10365;52.578;8.138;2022-09-01T10:55:39;0.70;;;0.45;;
20411;SDS011;10365;52.578;8.138;2022-09-01T11:00:44;1.95;;;0.50;;
20411;SDS011;10365;52.578;8.138;2022-09-01T11:10:52;4.65;;;0.57;;
20411;SDS011;10365;52.578;8.138;2022-09-01T11:15:54;2.13;;;0.60;;
20411;SDS011;10365;52.578;8.138;2022-09-01T11:18:24;2.30;;;0.47;;
20411;SDS011;10365;52.578;8.138;2022-09-01T11:20:51;1.73;;;0.45;;
20411;SDS011;10365;52.578;8.138;2022-09-01T11:28:37;6.47;;;0.90;;
20411;SDS011;10365;52.578;8.138;2022-09-01T11:41:33;3.92;;;0.50;;
20411;SDS011;10365;52.578;8.138;2022-09-01T11:44:01;3.42;;;0.90;;
20411;SDS011;10365;52.578;8.138;2022-09-01T11:46:31;1.73;;;0.68;;
20411;SDS011;10365;52.578;8.138;2022-09-01T11:48:57;8.18;;;0.57;;
20411;SDS011;10365;52.578;8.138;2022-09-01T11:51:24;1.55;;;0.65;;
20411;SDS011;10365;52.578;8.138;2022-09-01T11:53:50;1.35;;;0.30;;
20411;SDS011;10365;52.578;8.138;2022-09-01T11:56:18;0.47;;;0.32;;
20411;SDS011;10365;52.578;8.138;2022-09-01T11:58:44;5.65;;;0.57;;
20411;SDS011;10365;52.578;8.138;2022-09-01T12:01:55;1.48;;;0.32;;
20411;SDS011;10365;52.578;8.138;2022-09-01T12:03:55;3.17;;;0.47;;
20411;SDS011;10365;52.578;8.138;2022-09-01T12:06:24;2.50;;;0.50;;
20411;SDS011;10365;52.578;8.138;2022-09-01T12:08:57;1.80;;;0.50;;
20411;SDS011;10365;52.578;8.138;2022-09-01T12:11:27;0.98;;;0.40;;
20411;SDS011;10365;52.578;8.138;2022-09-01T12:14:00;4.57;;;1.02;;
20411;SDS011;10365;52.578;8.138;2022-09-01T12:16:27;2.85;;;0.55;;
20411;SDS011;10365;52.578;8.138;2022-09-01T12:18:53;5.85;;;0.57;;
20411;SDS011;10365;52.578;8.138;2022-09-01T12:21:24;20.52;;;0.70;;
20411;SDS011;10365;52.578;8.138;2022-09-01T12:23:50;7.22;;;0.50;;
20411;SDS011;10365;52.578;8.138;2022-09-01T12:26:19;2.38;;;0.50;;
20411;SDS011;10365;52.578;8.138;2022-09-01T12:28:47;3.88;;;0.50;;
20411;SDS011;10365;52.578;8.138;2022-09-01T12:31:18;2.65;;;0.60;;
20411;SDS011;10365;52.578;8.138;2022-09-01T12:33:44;5.38;;;0.40;;
20411;SDS011;10365;52.578;8.138;2022-09-01T12:38:46;1.35;;;0.30;;
20411;SDS011;10365;52.578;8.138;2022-09-01T12:41:32;0.43;;;0.30;;
20411;SDS011;10365;52.578;8.138;2022-09-01T12:46:44;2.63;;;0.38;;
20411;SDS011;10365;52.578;8.138;2022-09-01T12:49:16;4.57;;;0.60;;
20411;SDS011;10365;52.578;8.138;2022-09-01T12:51:42;11.18;;;0.52;;
20411;SDS011;10365;52.578;8.138;2022-09-01T12:54:12;2.55;;;0.28;;
20411;SDS011;10365;52.578;8.138;2022-09-01T12:56:38;0.60;;;0.28;;
20411;SDS011;10365;52.578;8.138;2022-09-01T12:59:39;1.15;;;0.28;;
20411;SDS011;10365;52.578;8.138;2022-09-01T13:02:24;0.40;;;0.38;;
20411;SDS011;10365;52.578;8.138;2022-09-01T13:04:44;4.70;;;0.38;;
20411;SDS011;10365;52.578;8.138;2022-09-01T13:07:10;4.25;;;0.50;;
20411;SDS011;10365;52.578;8.138;2022-09-01T13:09:35;4.53;;;0.70;;
20411;SDS011;10365;52.578;8.138;2022-09-01T13:12:09;1.52;;;0.30;;
20411;SDS011;10365;52.578;8.138;2022-09-01T13:14:35;2.05;;;0.40;;
20411;SDS011;10365;52.578;8.138;2022-09-01T13:17:00;0.45;;;0.30;;
20411;SDS011;10365;52.578;8.138;2022-09-01T13:19:26;1.05;;;0.40;;
20411;SDS011;10365;52.578;8.138;2022-09-01T13:21:51;0.52;;;0.20;;
20411;SDS011;10365;52.578;8.138;2022-09-01T13:24:17;1.33;;;0.40;;
20411;SDS011;10365;52.578;8.138;2022-09-01T13:26:42;1.45;;;0.30;;
20411;SDS011;10365;52.578;8.138;2022-09-01T13:29:10;0.90;;;0.40;;
20411;SDS011;10365;52.578;8.138;2022-09-01T13:31:37;2.45;;;0.32;;
20411;SDS011;10365;52.578;8.138;2022-09-01T13:34:02;0.90;;;0.30;;
20411;SDS011;10365;52.578;8.138;2022-09-01T13:36:28;3.58;;;0.40;;
20411;SDS011;10365;52.578;8.138;2022-09-01T13:38:53;1.08;;;0.30;;
20411;SDS011;10365;52.578;8.138;2022-09-01T13:41:19;11.73;;;0.47;;
20411;SDS011;10365;52.578;8.138;2022-09-01T13:43:44;0.82;;;0.35;;
20411;SDS011;10365;52.578;8.138;2022-09-01T13:46:11;1.30;;;0.35;;
20411;SDS011;10365;52.578;8.138;2022-09-01T13:48:37;3.95;;;0.40;;
20411;SDS011;10365;52.578;8.138;2022-09-01T13:51:03;1.33;;;0.30;;
20411;SDS011;10365;52.578;8.138;2022-09-01T13:53:28;0.63;;;0.30;;
20411;SDS011;10365;52.578;8.138;2022-09-01T13:55:54;11.82;;;0.77;;
20411;SDS011;10365;52.578;8.138;2022-09-01T13:58:19;6.90;;;0.73;;
20411;SDS011;10365;52.578;8.138;2022-09-01T14:00:45;4.00;;;0.50;;
20411;SDS011;10365;52.578;8.138;2022-09-01T14:03:15;0.50;;;0.30;;
20411;SDS011;10365;52.578;8.138;2022-09-01T14:05:43;8.73;;;0.90;;
20411;SDS011;10365;52.578;8.138;2022-09-01T14:08:09;0.55;;;0.30;;
20411;SDS011;10365;52.578;8.138;2022-09-01T14:10:37;5.70;;;0.70;;
20411;SDS011;10365;52.578;8.138;2022-09-01T14:13:04;1.33;;;0.35;;
20411;SDS011;10365;52.578;8.138;2022-09-01T14:15:30;4.55;;;0.52;;
20411;SDS011;10365;52.578;8.138;2022-09-01T14:17:56;6.30;;;0.70;;
20411;SDS011;10365;52.578;8.138;2022-09-01T14:20:23;3.03;;;0.30;;
20411;SDS011;10365;52.578;8.138;2022-09-01T14:22:49;4.85;;;0.43;;
20411;SDS011;10365;52.578;8.138;2022-09-01T14:25:16;4.38;;;0.40;;
20411;SDS011;10365;52.578;8.138;2022-09-01T14:27:42;2.90;;;0.30;;
20411;SDS011;10365;52.578;8.138;2022-09-01T14:30:09;6.22;;;0.57;;
20411;SDS011;10365;52.578;8.138;2022-09-01T14:32:35;5.35;;;0.50;;
20411;SDS011;10365;52.578;8.138;2022-09-01T14:35:00;5.10;;;0.30;;
20411;SDS011;10365;52.578;8.138;2022-09-01T14:37:26;4.82;;;0.30;;
20411;SDS011;10365;52.578;8.138;2022-09-01T14:39:53;1.02;;;0.30;;
20411;SDS011;10365;52.578;8.138;2022-09-01T14:42:19;2.47;;;0.22;;
20411;SDS011;10365;52.578;8.138;2022-09-01T14:44:46;6.13;;;0.47;;
20411;SDS011;10365;52.578;8.138;2022-09-01T14:47:12;7.10;;;0.40;;
20411;SDS011;10365;52.578;8.138;2022-09-01T14:49:38;3.25;;;0.68;;
20411;SDS011;10365;52.578;8.138;2022-09-01T14:52:03;13.88;;;0.98;;
20411;SDS011;10365;52.578;8.138;2022-09-01T14:54:33;2.45;;;0.40;;
20411;SDS011;10365;52.578;8.138;2022-09-01T14:56:59;3.83;;;0.40;;
20411;SDS011;10365;52.578;8.138;2022-09-01T14:59:25;2.88;;;0.88;;
20411;SDS011;10365;52.578;8.138;2022-09-01T15:01:50;4.80;;;0.30;;
20411;SDS011;10365;52.578;8.138;2022-09-01T15:04:16;0.80;;;0.40;;
20411;SDS011;10365;52.578;8.138;2022-09-01T15:06:42;0.60;;;0.40;;
20411;SDS011;10365;52.578;8.138;2022-09-01T15:09:07;4.68;;;0.40;;
20411;SDS011;10365;52.578;8.138;2022-09-01T15:11:33;3.65;;;0.40;;
20411;SDS011;10365;52.578;8.138;2022-09-01T15:13:58;6.03;;;0.40;;
20411;SDS011;10365;52.578;8.138;2022-09-01T15:16:25;5.43;;;0.52;;
20411;SDS011;10365;52.578;8.138;2022-09-01T15:18:51;2.75;;;0.50;;
20411;SDS011;10365;52.578;8.138;2022-09-01T15:21:27;2.95;;;0.30;;
20411;SDS011;10365;52.578;8.138;2022-09-01T15:23:52;4.60;;;0.65;;
20411;SDS011;10365;52.578;8.138;2022-09-01T15:26:18;3.22;;;0.30;;
20411;SDS011;10365;52.578;8.138;2022-09-01T15:28:44;5.00;;;0.73;;
20411;SDS011;10365;52.578;8.138;2022-09-01T15:31:09;11.02;;;0.80;;
20411;SDS011;10365;52.578;8.138;2022-09-01T15:33:37;14.73;;;1.00;;
20411;SDS011;10365;52.578;8.138;2022-09-01T15:36:02;14.30;;;1.27;;
20411;SDS011;10365;52.578;8.138;2022-09-01T15:38:28;2.42;;;0.60;;
20411;SDS011;10365;52.578;8.138;2022-09-01T15:40:53;5.22;;;0.50;;
20411;SDS011;10365;52.578;8.138;2022-09-01T15:43:20;9.75;;;0.50;;
20411;SDS011;10365;52.578;8.138;2022-09-01T15:45:46;8.23;;;0.60;;
20411;SDS011;10365;52.578;8.138;2022-09-01T15:48:11;3.80;;;0.47;;
20411;SDS011;10365;52.578;8.138;2022-09-01T15:50:37;13.18;;;0.85;;
20411;SDS011;10365;52.578;8.138;2022-09-01T15:53:03;5.22;;;0.73;;
20411;SDS011;10365;52.578;8.138;2022-09-01T15:55:53;7.32;;;0.70;;
20411;SDS011;10365;52.578;8.138;2022-09-01T15:58:18;3.33;;;0.70;;
20411;SDS011;10365;52.578;8.138;2022-09-01T16:00:44;17.17;;;1.40;;
20411;SDS011;10365;52.578;8.138;2022-09-01T16:03:10;3.63;;;0.38;;
20411;SDS011;10365;52.578;8.138;2022-09-01T16:05:36;3.78;;;0.55;;
20411;SDS011;10365;52.578;8.138;2022-09-01T16:08:03;0.90;;;0.40;;
20411;SDS011;10365;52.578;8.138;2022-09-01T16:10:32;3.05;;;0.40;;
20411;SDS011;10365;52.578;8.138;2022-09-01T16:12:59;4.30;;;0.52;;